Time;durP1;ratioP1;P1;durP2;ratioP2;P2;SDS_P1;SDS_P2;PMS_P1;PMS_P2;Temp;Humidity;BMP_temperature;BMP_pressure;BME280_temperature;BME280_humidity;BME280_pressure;Samples;Min_cycle;Max_cycle;Signal;HPM_P1;HPM_P2
2020/12/29 00:02:09;;;;;;;0.00;0.00;;;;;;;;;;5096460;27;20278;-61
2020/12/29 00:04:35;;;;;;;0.00;0.00;;;;;;;;;;5098909;27;20189;-61
2020/12/29 00:07:04;;;;;;;0.67;0.67;;;;;;;;;;5097848;27;20186;-63
2020/12/29 00:09:33;;;;;;;0.00;0.00;;;;;;;;;;5098948;27;20230;-63
2020/12/29 00:12:03;;;;;;;0.00;0.00;;;;;;;;;;5098478;28;20196;-62
2020/12/29 00:14:29;;;;;;;0.00;0.00;;;;;;;;;;5098578;28;21520;-63
2020/12/29 00:16:58;;;;;;;0.00;0.00;;;;;;;;;;5101158;27;20177;-62
2020/12/29 00:19:26;;;;;;;0.00;0.00;;;;;;;;;;5100011;28;20189;-64
2020/12/29 00:21:53;;;;;;;0.00;0.00;;;;;;;;;;5099047;28;20182;-63
2020/12/29 00:24:22;;;;;;;0.00;0.00;;;;;;;;;;5101626;27;20184;-62
2020/12/29 00:26:49;;;;;;;0.30;0.30;;;;;;;;;;5100616;28;20186;-64
2020/12/29 00:29:17;;;;;;;0.00;0.00;;;;;;;;;;5098388;28;20365;-63
2020/12/29 00:31:44;;;;;;;0.00;0.00;;;;;;;;;;5095583;28;20542;-62
2020/12/29 00:34:10;;;;;;;0.00;0.00;;;;;;;;;;5097126;27;20190;-63
2020/12/29 00:36:39;;;;;;;0.00;0.00;;;;;;;;;;5101700;27;20242;-61
2020/12/29 00:39:06;;;;;;;0.10;0.10;;;;;;;;;;5099342;27;20182;-63
2020/12/29 00:41:32;;;;;;;0.00;0.00;;;;;;;;;;5101349;28;20204;-62
2020/12/29 00:43:59;;;;;;;2.50;2.40;;;;;;;;;;5100715;27;20189;-62
2020/12/29 00:46:26;;;;;;;0.00;0.00;;;;;;;;;;5100227;28;20228;-64
2020/12/29 00:48:54;;;;;;;0.00;0.00;;;;;;;;;;5099875;28;20220;-62
2020/12/29 00:51:23;;;;;;;0.00;0.00;;;;;;;;;;5098444;28;20953;-61
2020/12/29 00:53:50;;;;;;;0.00;0.00;;;;;;;;;;5097472;28;20184;-63
2020/12/29 00:56:16;;;;;;;0.00;0.00;;;;;;;;;;5099225;27;20191;-63
2020/12/29 00:58:43;;;;;;;0.00;0.00;;;;;;;;;;5102986;27;20250;-64
2020/12/29 01:01:12;;;;;;;0.07;0.07;;;;;;;;;;5101601;27;20194;-63
2020/12/29 01:03:39;;;;;;;0.00;0.00;;;;;;;;;;5091927;27;20198;-62
2020/12/29 01:06:09;;;;;;;0.00;0.00;;;;;;;;;;5099227;27;20191;-61
2020/12/29 14:26:41;;;;;;;0.20;0.20;;;;;;;;;;5089456;28;20580;-61
2020/12/29 14:32:11;;;;;;;0.10;0.10;;;;;;;;;;5070221;28;20224;-61
2020/12/29 14:37:41;;;;;;;0.10;0.10;;;;;;;;;;5069258;28;20186;-62
2020/12/29 14:43:11;;;;;;;4.80;0.30;;;;;;;;;;5085818;28;20259;-63
2020/12/29 14:48:41;;;;;;;0.33;0.33;;;;;;;;;;5068702;28;20198;-62
2020/12/29 14:54:11;;;;;;;0.30;0.30;;;;;;;;;;5069851;28;20262;-63
2020/12/29 14:59:41;;;;;;;0.10;0.10;;;;;;;;;;5069661;28;20248;-60
2020/12/29 15:05:12;;;;;;;0.10;0.10;;;;;;;;;;5087258;28;20289;-62
2020/12/29 15:10:42;;;;;;;0.20;0.20;;;;;;;;;;5086767;28;20186;-62
2020/12/29 15:16:12;;;;;;;0.10;0.10;;;;;;;;;;5068352;28;20248;-62
2020/12/29 15:21:42;;;;;;;0.60;0.60;;;;;;;;;;5068234;28;20229;-61
2020/12/29 15:27:13;;;;;;;0.10;0.10;;;;;;;;;;5056115;28;20267;-61
2020/12/29 15:32:43;;;;;;;0.43;0.43;;;;;;;;;;5054757;28;20222;-61
2020/12/29 15:38:13;;;;;;;0.10;0.10;;;;;;;;;;5074549;28;20304;-60
2020/12/29 15:43:44;;;;;;;0.10;0.10;;;;;;;;;;5069913;28;20720;-60
2020/12/29 15:49:14;;;;;;;16.87;2.20;;;;;;;;;;5066332;28;20189;-61
2020/12/29 15:54:44;;;;;;;0.00;0.00;;;;;;;;;;5073476;28;20181;-62
2020/12/29 16:00:14;;;;;;;0.10;0.10;;;;;;;;;;5071051;28;20183;-62
2020/12/29 16:05:44;;;;;;;1.03;0.20;;;;;;;;;;5072237;28;20193;-61
2020/12/29 16:11:14;;;;;;;0.00;0.00;;;;;;;;;;5079645;28;20770;-61
2020/12/29 16:16:44;;;;;;;0.10;0.10;;;;;;;;;;5082324;28;20237;-62
2020/12/29 16:22:14;;;;;;;0.10;0.10;;;;;;;;;;5081571;28;20241;-60
2020/12/29 16:27:44;;;;;;;0.20;0.20;;;;;;;;;;5082710;28;20217;-62
2020/12/29 16:33:14;;;;;;;0.10;0.10;;;;;;;;;;5082776;28;20209;-63
2020/12/29 16:38:45;;;;;;;0.10;0.10;;;;;;;;;;5078842;28;20185;-63
2020/12/29 16:44:15;;;;;;;0.10;0.10;;;;;;;;;;5066939;28;20180;-63
2020/12/29 16:49:44;;;;;;;0.10;0.10;;;;;;;;;;5061524;28;20191;-60
2020/12/29 16:55:15;;;;;;;0.20;0.20;;;;;;;;;;5058039;28;20673;-61
2020/12/29 17:00:45;;;;;;;0.03;0.03;;;;;;;;;;5057793;28;20260;-62
2020/12/29 17:06:16;;;;;;;0.10;0.10;;;;;;;;;;5067911;28;20190;-62
2020/12/29 17:11:47;;;;;;;0.00;0.00;;;;;;;;;;5076889;28;20347;-62
2020/12/29 17:17:18;;;;;;;0.10;0.10;;;;;;;;;;5068599;28;20264;-60
2020/12/29 17:22:48;;;;;;;0.00;0.00;;;;;;;;;;5071171;28;20276;-62
2020/12/29 17:28:19;;;;;;;0.10;0.10;;;;;;;;;;5076240;28;20174;-62
2020/12/29 17:30:46;;;;;;;0.00;0.00;;;;;;;;;;5065085;28;20187;-64
2020/12/29 17:33:12;;;;;;;0.00;0.00;;;;;;;;;;5058263;28;20256;-62
2020/12/29 17:35:39;;;;;;;0.10;0.10;;;;;;;;;;5057997;28;20183;-61
2020/12/29 17:38:05;;;;;;;0.10;0.10;;;;;;;;;;5055296;28;20179;-64
2020/12/29 17:40:32;;;;;;;0.10;0.10;;;;;;;;;;5052560;28;20660;-62
2020/12/29 17:42:58;;;;;;;0.23;0.23;;;;;;;;;;5046145;28;20565;-62
2020/12/29 17:45:25;;;;;;;0.10;0.10;;;;;;;;;;5047222;28;20279;-62
2020/12/29 17:47:51;;;;;;;1.07;0.30;;;;;;;;;;5052420;28;20491;-62
2020/12/29 17:50:18;;;;;;;0.10;0.10;;;;;;;;;;5045389;28;20182;-61
2020/12/29 17:52:45;;;;;;;0.10;0.10;;;;;;;;;;5046390;28;20213;-62
2020/12/29 17:55:12;;;;;;;0.10;0.10;;;;;;;;;;5046054;28;20182;-63
2020/12/29 17:57:39;;;;;;;0.10;0.10;;;;;;;;;;5049683;28;20197;-63
2020/12/29 18:00:05;;;;;;;0.10;0.10;;;;;;;;;;5048079;28;20171;-65
2020/12/29 18:02:32;;;;;;;0.10;0.10;;;;;;;;;;5050034;28;20260;-64
2020/12/29 18:04:59;;;;;;;0.20;0.20;;;;;;;;;;5045863;28;20227;-63
2020/12/29 18:07:25;;;;;;;0.10;0.10;;;;;;;;;;5048145;28;20751;-65
2020/12/29 18:09:52;;;;;;;0.10;0.10;;;;;;;;;;5051318;28;20188;-64
2020/12/29 18:12:18;;;;;;;0.10;0.10;;;;;;;;;;5039650;28;20276;-64
2020/12/29 18:14:45;;;;;;;0.10;0.10;;;;;;;;;;5041145;28;20739;-64
2020/12/29 18:17:11;;;;;;;16.30;1.13;;;;;;;;;;5048046;28;20187;-65
2020/12/29 18:19:38;;;;;;;0.00;0.00;;;;;;;;;;5039507;28;20186;-63
2020/12/29 18:22:05;;;;;;;0.10;0.10;;;;;;;;;;5044997;28;20270;-63
2020/12/29 18:24:31;;;;;;;0.03;0.03;;;;;;;;;;5045593;28;20187;-64
2020/12/29 18:26:58;;;;;;;0.10;0.10;;;;;;;;;;5051583;28;20197;-64
2020/12/29 18:29:24;;;;;;;0.00;0.00;;;;;;;;;;5048310;28;20558;-63
2020/12/29 18:31:51;;;;;;;0.00;0.00;;;;;;;;;;5046973;28;20236;-64
2020/12/29 18:34:18;;;;;;;0.10;0.10;;;;;;;;;;5053193;28;20182;-63
2020/12/29 18:36:46;;;;;;;0.10;0.10;;;;;;;;;;5053218;28;20192;-63
2020/12/29 18:39:15;;;;;;;0.00;0.00;;;;;;;;;;5047524;28;20629;-63
2020/12/29 18:41:42;;;;;;;0.00;0.00;;;;;;;;;;5044866;28;20270;-64
2020/12/29 18:44:09;;;;;;;0.20;0.20;;;;;;;;;;5045624;28;20181;-63
2020/12/29 18:46:35;;;;;;;0.00;0.00;;;;;;;;;;5049321;28;20183;-64
2020/12/29 18:49:02;;;;;;;0.20;0.20;;;;;;;;;;5050192;28;20201;-64
2020/12/29 18:51:29;;;;;;;0.00;0.00;;;;;;;;;;5050131;28;20686;-63
2020/12/29 18:53:57;;;;;;;0.10;0.10;;;;;;;;;;5053422;28;20509;-63
2020/12/29 18:56:23;;;;;;;0.00;0.00;;;;;;;;;;5055911;28;20176;-63
2020/12/29 18:58:50;;;;;;;0.10;0.10;;;;;;;;;;5044926;28;20483;-63
2020/12/29 19:01:23;;;;;;;0.00;0.00;;;;;;;;;;5053252;28;20195;-63
2020/12/29 19:03:50;;;;;;;0.37;0.20;;;;;;;;;;5050720;28;20199;-65
2020/12/29 19:06:18;;;;;;;0.10;0.10;;;;;;;;;;5053504;28;20225;-64
2020/12/29 19:08:44;;;;;;;0.20;0.20;;;;;;;;;;5056746;28;20273;-64
2020/12/29 19:11:11;;;;;;;0.80;0.80;;;;;;;;;;5053792;28;20748;-63
2020/12/29 19:13:37;;;;;;;2.33;0.20;;;;;;;;;;5053613;28;20214;-63
2020/12/29 19:16:04;;;;;;;0.40;0.30;;;;;;;;;;5059220;28;20263;-63
2020/12/29 19:18:32;;;;;;;0.40;0.40;;;;;;;;;;5054093;28;20938;-63
2020/12/29 19:20:58;;;;;;;18.30;1.07;;;;;;;;;;5057942;28;20232;-64
2020/12/29 19:23:25;;;;;;;0.20;0.20;;;;;;;;;;5056260;28;20673;-64
2020/12/29 19:25:51;;;;;;;0.20;0.20;;;;;;;;;;5052737;28;20186;-64
2020/12/29 19:28:18;;;;;;;0.10;0.10;;;;;;;;;;5060501;28;20197;-64
2020/12/29 19:30:48;;;;;;;2.10;0.30;;;;;;;;;;5056832;28;20273;-64
2020/12/29 19:33:14;;;;;;;0.10;0.10;;;;;;;;;;5057633;28;20298;-65
2020/12/29 19:35:41;;;;;;;0.10;0.10;;;;;;;;;;5056516;28;20233;-62
2020/12/29 19:38:07;;;;;;;1.07;0.83;;;;;;;;;;5057239;28;20191;-62
2020/12/29 19:40:34;;;;;;;2.90;0.73;;;;;;;;;;5053630;28;20175;-62
2020/12/29 19:43:00;;;;;;;0.83;0.30;;;;;;;;;;5058395;28;20275;-63
2020/12/29 19:45:27;;;;;;;0.10;0.10;;;;;;;;;;5051141;28;20191;-63
2020/12/29 19:47:53;;;;;;;0.97;0.43;;;;;;;;;;5052571;28;20186;-64
2020/12/29 19:50:20;;;;;;;0.10;0.10;;;;;;;;;;5054331;28;20183;-64
2020/12/29 19:52:47;;;;;;;0.30;0.30;;;;;;;;;;5059414;28;20598;-62
2020/12/29 19:55:14;;;;;;;1.07;0.60;;;;;;;;;;5055600;28;20186;-63
2020/12/29 19:57:42;;;;;;;0.40;0.40;;;;;;;;;;5057762;28;20891;-62
2020/12/29 20:00:08;;;;;;;5.37;0.97;;;;;;;;;;5057171;28;20190;-63
2020/12/29 20:02:35;;;;;;;0.23;0.23;;;;;;;;;;5048106;28;20174;-64
2020/12/29 20:05:01;;;;;;;0.30;0.17;;;;;;;;;;5052127;28;20183;-64
2020/12/29 20:07:28;;;;;;;2.43;0.53;;;;;;;;;;5055150;28;20549;-64
2020/12/29 20:09:54;;;;;;;0.00;0.00;;;;;;;;;;5053707;28;20207;-64
2020/12/29 20:12:21;;;;;;;0.10;0.10;;;;;;;;;;5054061;28;20214;-64
2020/12/29 20:17:52;;;;;;;0.30;0.30;;;;;;;;;;5051641;28;20316;-64
2020/12/29 20:20:18;;;;;;;1.90;0.73;;;;;;;;;;5063069;28;20200;-64
2020/12/29 20:22:45;;;;;;;0.97;0.37;;;;;;;;;;5054130;28;20929;-63
2020/12/29 20:25:11;;;;;;;0.33;0.10;;;;;;;;;;5060051;28;20634;-64
2020/12/29 20:27:38;;;;;;;1.70;0.33;;;;;;;;;;5052443;28;20187;-62
2020/12/29 20:30:04;;;;;;;0.20;0.20;;;;;;;;;;5056070;28;20274;-64
2020/12/29 20:32:31;;;;;;;0.00;0.00;;;;;;;;;;5058844;28;20313;-63
2020/12/29 20:34:57;;;;;;;1.60;1.30;;;;;;;;;;5057995;28;20859;-60
2020/12/29 20:37:24;;;;;;;0.30;0.30;;;;;;;;;;5059914;28;20186;-63
2020/12/29 20:39:50;;;;;;;0.10;0.10;;;;;;;;;;5055051;28;20192;-61
2020/12/29 20:42:17;;;;;;;0.00;0.00;;;;;;;;;;5050710;28;20177;-64
2020/12/29 20:44:43;;;;;;;0.20;0.20;;;;;;;;;;5056833;28;20194;-64
2020/12/29 20:47:10;;;;;;;0.00;0.00;;;;;;;;;;5051891;28;20174;-63
2020/12/29 20:49:37;;;;;;;0.80;0.80;;;;;;;;;;5053425;28;20186;-64
2020/12/29 20:52:03;;;;;;;0.77;0.27;;;;;;;;;;5056449;28;20292;-63
2020/12/29 20:54:30;;;;;;;1.20;0.50;;;;;;;;;;5050444;28;20665;-62
2020/12/29 20:56:56;;;;;;;3.80;0.50;;;;;;;;;;5056369;28;20194;-65
2020/12/29 20:59:23;;;;;;;0.00;0.00;;;;;;;;;;5056230;28;20182;-63
2020/12/29 21:01:50;;;;;;;0.10;0.10;;;;;;;;;;5051884;28;20194;-64
2020/12/29 21:04:16;;;;;;;1.30;0.33;;;;;;;;;;5051843;28;20189;-64
2020/12/29 21:06:43;;;;;;;0.57;0.57;;;;;;;;;;5051062;28;20186;-62
2020/12/29 21:09:09;;;;;;;0.50;0.37;;;;;;;;;;5049490;28;20220;-62
2020/12/29 21:11:36;;;;;;;0.00;0.00;;;;;;;;;;5053860;28;20256;-64
2020/12/29 21:14:03;;;;;;;0.00;0.00;;;;;;;;;;5055808;28;20181;-63
2020/12/29 21:16:29;;;;;;;0.63;0.60;;;;;;;;;;5051919;28;20192;-63
2020/12/29 21:18:56;;;;;;;0.57;0.40;;;;;;;;;;5056738;28;20233;-63
2020/12/29 21:21:22;;;;;;;0.47;0.30;;;;;;;;;;5046198;28;20194;-61
2020/12/29 21:23:49;;;;;;;0.97;0.27;;;;;;;;;;5049308;28;20602;-62
2020/12/29 21:26:17;;;;;;;0.97;0.10;;;;;;;;;;5053410;28;20297;-64
2020/12/29 21:28:43;;;;;;;0.30;0.20;;;;;;;;;;5048965;28;20190;-63
2020/12/29 21:31:13;;;;;;;0.00;0.00;;;;;;;;;;5054020;28;20608;-62
2020/12/29 21:33:40;;;;;;;0.57;0.13;;;;;;;;;;5046185;28;20194;-63
2020/12/29 21:36:07;;;;;;;0.60;0.53;;;;;;;;;;5053946;28;20193;-64
2020/12/29 21:38:33;;;;;;;0.60;0.40;;;;;;;;;;5053226;28;20326;-64
2020/12/29 21:41:03;;;;;;;0.00;0.00;;;;;;;;;;5053172;28;20274;-62
2020/12/29 21:43:29;;;;;;;0.00;0.00;;;;;;;;;;5047322;28;20185;-63
2020/12/29 21:45:56;;;;;;;0.00;0.00;;;;;;;;;;5053149;28;20185;-64
2020/12/29 21:48:22;;;;;;;0.07;0.07;;;;;;;;;;5054488;28;20261;-62
2020/12/29 21:50:49;;;;;;;1.67;1.50;;;;;;;;;;5055331;28;20199;-63
2020/12/29 21:53:16;;;;;;;3.53;0.10;;;;;;;;;;5051965;28;21011;-63
2020/12/29 21:55:42;;;;;;;0.40;0.10;;;;;;;;;;5056059;28;20787;-62
2020/12/29 21:58:09;;;;;;;0.00;0.00;;;;;;;;;;5051412;28;20188;-63
2020/12/29 22:00:36;;;;;;;6.27;5.97;;;;;;;;;;5045728;28;20574;-65
2020/12/29 22:03:03;;;;;;;0.00;0.00;;;;;;;;;;5053525;28;20601;-62
2020/12/29 22:05:29;;;;;;;1.70;0.83;;;;;;;;;;5050367;28;20180;-63
2020/12/29 22:07:56;;;;;;;3.50;1.03;;;;;;;;;;5059417;28;20189;-64
2020/12/29 22:10:23;;;;;;;0.00;0.00;;;;;;;;;;5056539;28;20189;-64
2020/12/29 22:12:50;;;;;;;0.00;0.00;;;;;;;;;;5056057;28;20664;-63
2020/12/29 22:15:16;;;;;;;0.00;0.00;;;;;;;;;;5055851;28;20505;-64
2020/12/29 22:17:43;;;;;;;0.27;0.13;;;;;;;;;;5058119;28;20227;-64
2020/12/29 22:20:09;;;;;;;1.20;1.10;;;;;;;;;;5054218;28;20185;-63
2020/12/29 22:22:36;;;;;;;0.00;0.00;;;;;;;;;;5058550;28;20313;-64
2020/12/29 22:25:04;;;;;;;1.33;0.00;;;;;;;;;;5059373;28;20780;-62
2020/12/29 22:27:30;;;;;;;0.00;0.00;;;;;;;;;;5058200;28;20570;-62
2020/12/29 22:29:57;;;;;;;0.30;0.10;;;;;;;;;;5058996;28;20234;-63
2020/12/29 22:32:24;;;;;;;5.93;0.20;;;;;;;;;;5059441;28;20237;-63
2020/12/29 22:34:50;;;;;;;1.13;0.20;;;;;;;;;;5060954;28;20283;-63
2020/12/29 22:37:17;;;;;;;0.00;0.00;;;;;;;;;;5063535;28;20193;-64
2020/12/29 22:39:43;;;;;;;0.00;0.00;;;;;;;;;;5068373;28;20226;-64
2020/12/29 22:42:10;;;;;;;0.63;0.20;;;;;;;;;;5061602;28;20185;-64
2020/12/29 22:44:37;;;;;;;9.63;0.87;;;;;;;;;;5064083;28;20569;-64
2020/12/29 22:47:03;;;;;;;0.20;0.10;;;;;;;;;;5058384;28;20333;-65
2020/12/29 22:49:30;;;;;;;2.23;0.40;;;;;;;;;;5055163;28;20181;-64
2020/12/29 22:51:56;;;;;;;0.00;0.00;;;;;;;;;;5059329;23;20255;-67
2020/12/29 22:54:23;;;;;;;5.20;1.30;;;;;;;;;;5032091;28;20247;-66
2020/12/29 22:56:49;;;;;;;0.20;0.10;;;;;;;;;;5040063;28;20186;-66
2020/12/29 22:59:16;;;;;;;0.00;0.00;;;;;;;;;;5034346;28;20238;-70
2020/12/29 23:01:43;;;;;;;1.03;0.27;;;;;;;;;;5035230;28;20189;-65
2020/12/29 23:04:11;;;;;;;0.00;0.00;;;;;;;;;;5034159;28;21140;-65
2020/12/29 23:06:51;;;;;;;4.03;2.33;;;;;;;;;;5033219;28;20193;-65
2020/12/29 23:09:18;;;;;;;0.00;0.00;;;;;;;;;;5035277;28;20669;-65
2020/12/29 23:11:46;;;;;;;0.00;0.00;;;;;;;;;;5030797;28;20733;-65
2020/12/29 23:14:13;;;;;;;0.00;0.00;;;;;;;;;;5032575;28;20273;-65
2020/12/29 23:16:42;;;;;;;1.90;0.10;;;;;;;;;;5036013;28;20630;-65
2020/12/29 23:19:08;;;;;;;0.23;0.10;;;;;;;;;;5040798;28;20191;-65
2020/12/29 23:21:35;;;;;;;5.20;2.07;;;;;;;;;;5039764;28;20197;-66
2020/12/29 23:24:01;;;;;;;0.47;0.47;;;;;;;;;;5040298;28;20198;-65
2020/12/29 23:26:28;;;;;;;0.00;0.00;;;;;;;;;;5039059;28;20192;-65
2020/12/29 23:28:54;;;;;;;0.27;0.27;;;;;;;;;;5040413;28;20949;-66
2020/12/29 23:31:21;;;;;;;4.33;0.10;;;;;;;;;;5035408;28;20274;-65
2020/12/29 23:33:48;;;;;;;0.00;0.00;;;;;;;;;;5034355;28;20236;-65
2020/12/29 23:36:14;;;;;;;0.00;0.00;;;;;;;;;;5034882;28;20247;-66
2020/12/29 23:38:41;;;;;;;8.83;0.50;;;;;;;;;;5036809;28;20181;-65
2020/12/29 23:41:14;;;;;;;0.00;0.00;;;;;;;;;;5038582;28;20185;-66
2020/12/29 23:43:41;;;;;;;0.10;0.10;;;;;;;;;;5032409;28;20257;-66
2020/12/29 23:46:11;;;;;;;1.50;0.57;;;;;;;;;;5038381;28;20517;-65
2020/12/29 23:48:37;;;;;;;8.97;1.70;;;;;;;;;;5035252;28;20671;-65
2020/12/29 23:51:05;;;;;;;0.00;0.00;;;;;;;;;;5038893;28;20190;-65
2020/12/29 23:53:31;;;;;;;0.10;0.10;;;;;;;;;;5030643;28;20227;-66
2020/12/29 23:55:58;;;;;;;0.00;0.00;;;;;;;;;;5037379;28;20268;-66
2020/12/29 23:58:24;;;;;;;0.00;0.00;;;;;;;;;;5038524;28;20187;-66
